Time;durP1;ratioP1;P1;durP2;ratioP2;P2;SDS_P1;SDS_P2;PMS_P1;PMS_P2;Temp;Humidity;BMP_temperature;BMP_pressure;BME280_temperature;BME280_humidity;BME280_pressure;Samples;Min_cycle;Max_cycle;Signal;HPM_P1;HPM_P2
2021/12/09 02:17:02;;;;;;;76.53;28.60;;;2.70;1.00;;;;;;5144277;23;20645;-90
2021/12/09 02:19:57;;;;;;;82.70;38.95;;;2.70;99.90;;;;;;4939610;29;20191;-91
2021/12/09 02:22:55;;;;;;;87.75;52.13;;;2.70;1.00;;;;;;4940150;29;20582;-91
2021/12/09 02:25:27;;;;;;;85.60;45.28;;;2.70;84.20;;;;;;4940803;29;20247;-91
2021/12/09 02:28:24;;;;;;;83.00;40.63;;;2.80;99.90;;;;;;4956902;29;20175;-91
2021/12/09 02:31:03;;;;;;;80.50;38.63;;;2.80;63.30;;;;;;4939801;29;20191;-91
2021/12/09 02:33:58;;;;;;;81.53;39.08;;;2.70;99.90;;;;;;4939909;29;20283;-91
2021/12/09 02:36:47;;;;;;;84.40;37.63;;;2.70;99.90;;;;;;4957099;29;20156;-90
2021/12/09 02:39:43;;;;;;;83.03;36.42;;;2.70;1.00;;;;;;4939121;28;20188;-91
2021/12/09 02:42:20;;;;;;;77.95;32.92;;;2.70;99.90;;;;;;4956427;29;20180;-91
2021/12/09 02:48:12;;;;;;;78.72;36.50;;;2.70;17.70;;;;;;4931749;29;20176;-91
2021/12/09 02:50:41;;;;;;;82.38;41.22;;;2.70;1.00;;;;;;4939423;29;20207;-91
2021/12/09 02:53:22;;;;;;;86.75;48.10;;;2.70;1.00;;;;;;4939526;29;20696;-90
2021/12/09 02:55:56;;;;;;;89.90;56.90;;;2.60;1.00;;;;;;4956888;29;20514;-91
2021/12/09 02:58:44;;;;;;;;;;;;;;;;;;;;;
2021/12/09 03:01:26;;;;;;;92.95;54.17;;;2.60;99.70;;;;;;4956481;28;20196;-91
2021/12/09 03:04:08;;;;;;;89.18;60.72;;;2.60;99.90;;;;;;4939774;29;20262;-91
2021/12/09 03:06:45;;;;;;;89.68;61.30;;;2.60;99.90;;;;;;4939595;29;20182;-91
2021/12/09 03:09:21;;;;;;;91.40;56.53;;;2.60;99.90;;;;;;4939162;28;20207;-91
2021/12/09 03:12:22;;;;;;;83.40;44.67;;;2.50;13.00;;;;;;4956808;29;20147;-91
2021/12/09 03:15:17;;;;;;;83.43;40.03;;;2.50;1.00;;;;;;4878839;29;20210;-91
2021/12/09 03:17:55;;;;;;;83.28;43.15;;;2.50;99.90;;;;;;4862932;29;20195;-91
2021/12/09 03:20:23;;;;;;;77.50;33.88;;;2.50;99.90;;;;;;4965435;23;20233;-91
2021/12/09 03:23:03;;;;;;;76.45;26.10;;;2.40;99.90;;;;;;4975005;28;20266;-90
2021/12/09 03:26:25;;;;;;;;;;;;;;;;;;;;;
2021/12/09 03:29:07;;;;;;;77.47;23.38;;;2.30;1.00;;;;;;4934921;29;20650;-91
2021/12/09 03:31:54;;;;;;;75.88;23.80;;;2.30;1.00;;;;;;4935165;29;20220;-91
2021/12/09 03:34:43;;;;;;;78.60;24.00;;;2.20;1.00;;;;;;4970783;28;20226;-91
2021/12/09 03:37:17;;;;;;;75.50;24.70;;;2.20;1.00;;;;;;4955140;29;20626;-91
2021/12/09 03:39:46;;;;;;;75.97;25.05;;;2.10;99.90;;;;;;4955449;28;20286;-90
2021/12/09 03:42:29;;;;;;;75.63;24.95;;;2.20;1.00;;;;;;4954152;29;20167;-90
2021/12/09 03:45:04;;;;;;;76.05;26.65;;;2.10;1.00;;;;;;4955233;29;20637;-91
2021/12/09 03:47:34;;;;;;;75.50;22.08;;;2.10;1.00;;;;;;4954535;29;20188;-91
2021/12/09 03:50:08;;;;;;;76.22;27.10;;;2.00;1.00;;;;;;4953520;28;20220;-91
2021/12/09 03:52:40;;;;;;;76.70;28.90;;;2.00;99.90;;;;;;4954573;29;20182;-91
2021/12/09 03:55:08;;;;;;;76.97;28.25;;;2.00;99.90;;;;;;4954477;29;20741;-91
2021/12/09 03:57:44;;;;;;;74.70;24.98;;;2.00;99.90;;;;;;4955714;28;20199;-91
2021/12/09 04:00:16;;;;;;;79.28;31.05;;;1.90;1.00;;;;;;4954427;28;20198;-91
2021/12/09 04:02:45;;;;;;;85.00;33.95;;;1.90;99.90;;;;;;4954298;29;20175;-90
2021/12/09 04:05:17;;;;;;;82.38;35.08;;;1.80;99.90;;;;;;4954728;29;20259;-91
2021/12/09 04:07:43;;;;;;;82.10;36.97;;;1.70;99.90;;;;;;4955322;28;20152;-91
2021/12/09 04:10:18;;;;;;;79.17;34.50;;;1.70;1.00;;;;;;4953858;28;20191;-91
2021/12/09 04:12:56;;;;;;;79.78;38.70;;;1.70;1.00;;;;;;4955340;28;20167;-91
2021/12/09 04:15:25;;;;;;;87.03;42.88;;;1.60;1.00;;;;;;4954007;29;20168;-91
2021/12/09 04:17:53;;;;;;;80.07;36.08;;;1.60;1.00;;;;;;4955095;29;20619;-91
2021/12/09 04:20:22;;;;;;;82.45;35.42;;;1.60;1.00;;;;;;4954097;28;20199;-91
2021/12/09 04:23:00;;;;;;;79.22;36.95;;;1.60;40.10;;;;;;4955433;28;20175;-91
2021/12/09 04:25:55;;;;;;;83.22;42.40;;;1.70;30.90;;;;;;4953939;28;20214;-91
2021/12/09 04:28:23;;;;;;;85.78;47.03;;;1.70;62.90;;;;;;4936418;29;20302;-91
2021/12/09 04:30:48;;;;;;;84.60;46.03;;;1.80;98.00;;;;;;4954876;28;20194;-91
2021/12/09 04:33:20;;;;;;;84.63;52.70;;;1.80;21.70;;;;;;4953787;29;20287;-91
2021/12/09 04:36:04;;;;;;;90.20;57.65;;;1.80;43.80;;;;;;4954917;29;20388;-91
2021/12/09 04:38:33;;;;;;;90.38;62.38;;;1.80;61.80;;;;;;4954248;29;20254;-91
2021/12/09 04:40:59;;;;;;;91.22;72.15;;;1.80;48.40;;;;;;4953765;28;20192;-91
2021/12/09 04:43:35;;;;;;;91.03;68.20;;;1.80;99.90;;;;;;4955118;29;20653;-91
2021/12/09 04:46:07;;;;;;;91.57;72.85;;;1.80;52.70;;;;;;4954349;29;20901;-91
2021/12/09 04:48:32;;;;;;;90.57;68.18;;;1.90;36.40;;;;;;4954880;29;20695;-90
2021/12/09 04:53:37;;;;;;;95.90;70.13;;;1.90;11.70;;;;;;838627;26;20759;-91
2021/12/09 04:56:09;;;;;;;87.18;59.00;;;1.90;55.30;;;;;;4957251;28;20524;-90
2021/12/09 04:58:38;;;;;;;85.90;56.08;;;1.90;44.70;;;;;;4956830;28;20540;-91
2021/12/09 05:01:13;;;;;;;90.45;64.75;;;1.90;1.00;;;;;;4940089;29;20246;-91
2021/12/09 05:03:52;;;;;;;88.80;57.80;;;1.80;9.80;;;;;;4941150;29;20259;-91
2021/12/09 05:07:11;;;;;;;87.70;54.28;;;1.80;99.90;;;;;;4941433;29;20186;-91
2021/12/09 05:09:52;;;;;;;84.70;51.00;;;1.70;1.00;;;;;;4910560;29;20250;-91
2021/12/09 05:12:27;;;;;;;94.65;54.40;;;1.60;1.00;;;;;;4959209;29;20208;-91
2021/12/09 05:15:31;;;;;;;87.25;59.20;;;1.60;99.90;;;;;;4940938;29;20202;-91
2021/12/09 05:18:18;;;;;;;87.60;57.53;;;1.60;99.90;;;;;;4846145;29;20175;-91
2021/12/09 05:21:06;;;;;;;89.22;63.33;;;1.70;99.90;;;;;;4861613;29;20195;-90
2021/12/09 05:23:43;;;;;;;89.60;63.05;;;1.70;99.90;;;;;;4846954;29;20270;-91
2021/12/09 05:26:10;;;;;;;92.05;64.65;;;1.70;99.90;;;;;;4861875;29;20238;-91
2021/12/09 05:28:38;;;;;;;97.53;69.25;;;1.70;99.90;;;;;;4846182;29;20247;-91
2021/12/09 05:34:52;;;;;;;91.75;75.85;;;1.60;99.90;;;;;;4861525;29;20398;-90
2021/12/09 05:39:49;;;;;;;101.93;85.97;;;1.60;99.90;;;;;;5091301;23;20565;-91
2021/12/09 05:42:19;;;;;;;100.18;83.60;;;1.60;99.90;;;;;;4976122;28;20261;-90
2021/12/09 05:45:09;;;;;;;98.00;81.03;;;1.60;99.90;;;;;;4975809;28;20176;-91
2021/12/09 05:47:52;;;;;;;100.07;84.15;;;1.70;99.90;;;;;;4974548;28;20175;-90
2021/12/09 05:50:44;;;;;;;96.03;72.22;;;1.60;99.90;;;;;;4976374;28;20222;-90
2021/12/09 05:56:21;;;;;;;89.72;60.45;;;1.60;99.90;;;;;;4976467;28;20182;-91
2021/12/09 06:04:25;;;;;;;91.35;50.10;;;1.50;99.90;;;;;;4305221;26;20215;-90
2021/12/09 06:06:57;;;;;;;87.05;45.72;;;1.50;99.90;;;;;;4975210;28;20183;-90
2021/12/09 06:10:00;;;;;;;95.65;60.42;;;1.50;99.90;;;;;;4971056;28;20278;-91
2021/12/09 06:12:49;;;;;;;87.82;49.88;;;1.40;99.90;;;;;;4955276;28;20724;-90
2021/12/09 06:15:41;;;;;;;93.88;62.70;;;1.50;99.90;;;;;;4879748;29;20195;-90
2021/12/09 06:18:18;;;;;;;91.68;62.70;;;1.40;99.90;;;;;;4870584;29;20225;-91
2021/12/09 06:21:03;;;;;;;91.45;60.65;;;1.40;99.90;;;;;;4935943;28;20289;-90
2021/12/09 06:23:31;;;;;;;89.15;60.35;;;1.40;99.90;;;;;;4956751;29;20689;-90
2021/12/09 06:26:05;;;;;;;97.88;73.20;;;1.40;99.90;;;;;;4955848;29;20183;-90
2021/12/09 06:28:34;;;;;;;92.45;70.93;;;1.40;99.90;;;;;;4956055;29;20200;-89
2021/12/09 06:31:08;;;;;;;91.55;62.80;;;1.40;99.90;;;;;;4955216;28;20200;-90
2021/12/09 06:33:47;;;;;;;88.10;52.53;;;1.40;99.90;;;;;;4955348;29;20195;-90
2021/12/09 06:36:40;;;;;;;90.80;65.88;;;1.40;99.90;;;;;;4956909;28;20153;-90
2021/12/09 06:39:17;;;;;;;79.88;41.97;;;1.40;99.90;;;;;;4955742;28;20260;-90
2021/12/09 06:42:06;;;;;;;88.18;55.13;;;1.40;99.90;;;;;;4956600;29;20165;-90
2021/12/09 06:44:35;;;;;;;89.00;54.80;;;1.40;99.90;;;;;;4955084;29;20184;-90
2021/12/09 06:47:03;;;;;;;89.22;54.70;;;1.40;99.90;;;;;;4955391;29;20167;-90
2021/12/09 06:49:43;;;;;;;90.03;57.30;;;1.40;99.90;;;;;;4956701;28;20199;-90
2021/12/09 06:52:14;;;;;;;98.47;69.53;;;1.30;99.90;;;;;;4957530;28;20172;-90
2021/12/09 06:54:57;;;;;;;97.60;67.35;;;1.30;99.90;;;;;;4956605;28;20668;-89
2021/12/09 06:57:59;;;;;;;92.57;58.97;;;1.40;99.90;;;;;;4956616;29;20195;-90
2021/12/09 07:00:46;;;;;;;88.00;56.90;;;1.30;99.90;;;;;;4954421;28;20198;-90
2021/12/09 07:04:08;;;;;;;84.45;48.50;;;1.30;99.90;;;;;;4954965;28;20188;-90
2021/12/09 07:13:49;;;;;;;91.35;51.38;;;1.30;99.90;;;;;;4953977;28;20200;-90
2021/12/09 07:16:52;;;;;;;84.30;42.83;;;1.30;99.90;;;;;;4953614;29;20207;-90
2021/12/09 07:28:08;;;;;;;89.53;51.80;;;1.20;99.90;;;;;;4755349;23;20234;-86
2021/12/09 07:30:11;;;;;;;88.28;49.38;;;1.20;99.90;;;;;;4971147;28;20198;-90
2021/12/09 07:32:42;;;;;;;92.32;53.97;;;1.20;99.90;;;;;;4973750;28;20230;-90
2021/12/09 07:35:23;;;;;;;;;;;;;;;;;;;;;
2021/12/09 07:37:49;;;;;;;91.07;66.40;;;1.20;99.90;;;;;;4975814;28;20177;-90
2021/12/09 07:40:36;;;;;;;;;;;;;;;;;;;;;
2021/12/09 07:43:23;;;;;;;91.00;66.63;;;1.20;99.90;;;;;;4975356;28;20618;-90
2021/12/09 07:46:12;;;;;;;92.53;67.53;;;1.30;99.90;;;;;;4973954;28;20163;-90
2021/12/09 07:48:43;;;;;;;97.65;80.82;;;1.30;99.90;;;;;;4975197;28;20160;-89
2021/12/09 07:51:17;;;;;;;119.65;107.53;;;1.30;99.90;;;;;;4973578;28;20187;-89
2021/12/09 07:53:59;;;;;;;115.78;100.95;;;1.40;99.90;;;;;;4975231;28;20186;-90
2021/12/09 07:56:27;;;;;;;114.93;100.97;;;1.50;99.90;;;;;;4973719;28;20178;-90
2021/12/09 07:59:03;;;;;;;122.43;110.40;;;1.50;99.90;;;;;;4973317;28;20174;-90
2021/12/09 08:01:29;;;;;;;137.25;124.30;;;1.50;99.90;;;;;;4974432;28;20175;-89
2021/12/09 08:04:07;;;;;;;158.43;144.68;;;1.50;99.90;;;;;;4974481;28;20649;-89
2021/12/09 08:06:34;;;;;;;132.88;120.40;;;1.60;99.90;;;;;;4973731;28;20171;-89
2021/12/09 08:09:03;;;;;;;121.72;109.80;;;1.60;99.90;;;;;;4974500;28;20522;-90
2021/12/09 08:11:36;;;;;;;132.68;120.45;;;1.60;99.90;;;;;;4973557;28;20207;-89
2021/12/09 08:14:04;;;;;;;146.85;134.50;;;1.70;99.90;;;;;;4974909;28;20541;-90
2021/12/09 08:16:45;;;;;;;130.43;118.63;;;1.70;99.90;;;;;;5067936;23;20229;-83
2021/12/09 08:19:19;;;;;;;138.30;124.68;;;1.70;99.90;;;;;;4979791;28;20668;-83
2021/12/09 08:22:08;;;;;;;146.63;133.88;;;1.70;99.90;;;;;;4979400;28;20190;-84
2021/12/09 08:25:28;;;;;;;112.07;100.53;;;1.70;99.90;;;;;;4978606;28;20628;-86
2021/12/09 08:28:26;;;;;;;113.15;101.53;;;1.80;99.90;;;;;;4977623;28;20672;-85
2021/12/09 08:38:13;;;;;;;;;;;;;;;;;;;;;
2021/12/09 08:44:36;;;;;;;105.70;90.78;;;2.00;99.90;;;;;;4952884;28;20182;-84
2021/12/09 08:47:59;;;;;;;;;;;;;;;;;;;;;
2021/12/09 08:50:45;;;;;;;103.28;82.88;;;2.10;99.90;;;;;;4918940;29;20203;-84
2021/12/09 08:54:14;;;;;;;;;;;;;;;;;;;;;
2021/12/09 08:57:37;;;;;;;;;;;;;;;;;;;;;
2021/12/09 09:01:21;;;;;;;;;;;;;;;;;;;;;
2021/12/09 09:16:02;;;;;;;120.15;108.63;;;2.30;99.90;;;;;;4914094;29;20213;-85
2021/12/09 09:18:50;;;;;;;158.15;145.15;;;2.30;99.90;;;;;;4843559;29;20191;-85
2021/12/09 09:25:24;;;;;;;;;;;;;;;;;;;;;
2021/12/09 09:34:44;;;;;;;149.07;136.68;;;2.70;99.90;;;;;;4939170;28;20221;-84
2021/12/09 09:55:40;;;;;;;;;;;;;;;;;;;;;
2021/12/09 10:12:16;;;;;;;110.57;99.32;;;3.50;99.90;;;;;;4902794;23;20236;-85
2021/12/09 10:19:18;;;;;;;;;;;;;;;;;;;;;
2021/12/09 10:29:18;;;;;;;;;;;;;;;;;;;;;
2021/12/09 10:32:02;;;;;;;127.18;114.28;;;3.90;99.90;;;;;;4894706;29;20273;-85
2021/12/09 10:35:38;;;;;;;;;;;;;;;;;;;;;
2021/12/09 10:46:07;;;;;;;;;;;;;;;;;;;;;
2021/12/09 11:15:00;;;;;;;;;;;;;;;;;;;;;
2021/12/09 11:20:40;;;;;;;;;;;;;;;;;;;;;
2021/12/09 11:27:29;;;;;;;78.25;22.90;;;5.10;99.90;;;;;;4973615;28;20596;-86
2021/12/09 11:31:11;;;;;;;75.45;22.23;;;5.10;99.90;;;;;;4977847;28;20194;-86
2021/12/09 11:53:36;;;;;;;;;;;;;;;;;;;;;
2021/12/09 11:56:59;;;;;;;112.00;31.80;;;5.40;99.90;;;;;;4960618;29;20247;-84
2021/12/09 12:15:57;;;;;;;78.45;24.70;;;5.40;99.90;;;;;;4862583;29;20230;-87
2021/12/09 12:35:28;;;;;;;83.35;34.50;;;5.30;99.90;;;;;;4959918;29;20197;-86
2021/12/09 12:41:47;;;;;;;75.32;21.92;;;5.40;99.90;;;;;;4959510;28;20199;-86
2021/12/09 12:44:57;;;;;;;;;;;;;;;;;;;;;
2021/12/09 12:51:44;;;;;;;;;;;;;;;;;;;;;
2021/12/09 12:57:50;;;;;;;;;;;;;;;;;;;;;
2021/12/09 13:00:25;;;;;;;77.82;23.15;;;5.40;99.90;;;;;;4958434;28;20263;-86
2021/12/09 13:10:43;;;;;;;75.15;25.92;;;5.40;99.90;;;;;;4961038;28;20219;-85
2021/12/09 13:19:35;;;;;;;69.90;11.85;;;5.30;99.90;;;;;;4960111;28;20184;-85
2021/12/09 13:22:17;;;;;;;83.85;26.25;;;5.40;99.90;;;;;;4961503;28;20211;-86
2021/12/09 13:24:59;;;;;;;76.78;28.45;;;5.40;99.90;;;;;;4962587;29;20219;-86
2021/12/09 13:27:45;;;;;;;72.63;12.20;;;5.40;99.90;;;;;;4963173;28;20158;-85
2021/12/09 13:37:04;;;;;;;80.00;29.23;;;5.40;99.90;;;;;;4923292;29;20180;-86
2021/12/09 13:45:57;;;;;;;70.22;8.68;;;5.40;99.90;;;;;;4908990;29;20293;-86
2021/12/09 13:48:40;;;;;;;74.03;10.63;;;5.40;99.90;;;;;;4962645;29;20656;-86
2021/12/09 13:51:22;;;;;;;70.85;8.77;;;5.40;99.90;;;;;;4962474;29;20188;-86
2021/12/09 13:54:08;;;;;;;69.53;7.90;;;5.40;99.90;;;;;;4963777;28;20180;-86
2021/12/09 13:56:34;;;;;;;69.55;8.85;;;5.40;99.90;;;;;;4963643;28;20235;-85
2021/12/09 13:59:26;;;;;;;72.73;9.53;;;5.40;99.90;;;;;;4963600;28;20191;-86
2021/12/09 14:01:59;;;;;;;68.70;8.80;;;5.40;99.90;;;;;;4962436;29;20508;-85
2021/12/09 20:18:14;;;;;;;145.43;132.27;;;5.00;99.90;;;;;;4954368;23;20579;-85
2021/12/09 20:20:51;;;;;;;188.90;174.18;;;4.90;99.90;;;;;;4922642;29;20189;-85
2021/12/09 20:23:27;;;;;;;103.93;89.22;;;4.90;99.90;;;;;;4922093;29;20188;-85
2021/12/09 20:25:59;;;;;;;90.63;65.13;;;5.00;99.90;;;;;;4923192;29;20547;-85
2021/12/09 20:28:27;;;;;;;88.70;60.90;;;5.00;99.90;;;;;;4923396;29;20523;-85
2021/12/09 20:31:18;;;;;;;98.47;78.07;;;5.00;99.90;;;;;;4921901;29;20193;-85
2021/12/09 20:33:50;;;;;;;88.53;51.47;;;5.00;99.90;;;;;;4922178;29;20216;-85
2021/12/09 20:36:22;;;;;;;85.60;48.67;;;5.00;99.90;;;;;;4923200;29;20181;-85
2021/12/09 20:38:54;;;;;;;94.30;65.53;;;5.00;99.90;;;;;;4923334;29;20232;-85
2021/12/09 20:41:29;;;;;;;88.60;55.42;;;4.90;99.90;;;;;;4921661;29;20173;-85
2021/12/09 20:44:16;;;;;;;90.53;50.33;;;4.90;99.90;;;;;;4921938;29;20539;-85
2021/12/09 20:46:54;;;;;;;88.05;54.53;;;5.00;99.90;;;;;;4920213;29;20175;-85
2021/12/09 20:49:37;;;;;;;88.05;56.90;;;5.00;99.90;;;;;;4921129;29;20228;-85
2021/12/09 20:52:15;;;;;;;105.10;87.07;;;5.00;99.90;;;;;;4920230;29;20173;-85
2021/12/09 20:54:44;;;;;;;106.68;95.35;;;4.90;99.90;;;;;;4921562;29;20212;-85
2021/12/09 20:57:12;;;;;;;101.40;88.53;;;4.80;99.90;;;;;;4921194;29;20176;-85
2021/12/09 20:59:44;;;;;;;101.68;83.28;;;4.80;99.90;;;;;;4922299;29;20567;-85
2021/12/09 21:02:20;;;;;;;108.60;97.22;;;4.80;99.90;;;;;;4921914;29;20191;-85
2021/12/09 21:05:18;;;;;;;371.00;350.65;;;4.80;99.90;;;;;;4920210;29;20504;-85
2021/12/09 21:07:49;;;;;;;250.38;233.40;;;4.70;99.90;;;;;;4921861;29;20185;-85
2021/12/09 21:10:36;;;;;;;197.82;182.45;;;4.70;99.90;;;;;;4921445;29;20189;-85
2021/12/09 21:13:09;;;;;;;157.07;144.20;;;4.70;99.90;;;;;;4921536;29;20149;-85
2021/12/09 21:16:28;;;;;;;194.27;179.75;;;4.70;99.90;;;;;;4921751;29;20241;-85
2021/12/09 21:19:03;;;;;;;197.05;182.23;;;4.60;99.90;;;;;;4910436;29;20185;-83
2021/12/09 21:22:00;;;;;;;222.38;206.82;;;4.50;99.90;;;;;;4921522;29;20192;-84
2021/12/09 21:24:58;;;;;;;172.57;159.00;;;4.50;99.90;;;;;;4921349;29;20189;-84
2021/12/09 21:27:26;;;;;;;181.60;167.45;;;4.50;99.90;;;;;;4920955;29;20185;-84
2021/12/09 21:30:01;;;;;;;177.77;164.27;;;4.50;99.90;;;;;;4921013;29;20264;-84
2021/12/09 21:32:44;;;;;;;167.52;154.20;;;4.50;99.90;;;;;;4920599;29;20268;-82
2021/12/09 21:35:19;;;;;;;187.90;173.82;;;4.60;99.90;;;;;;4921167;29;20205;-84
2021/12/09 21:38:04;;;;;;;194.18;179.43;;;4.50;99.90;;;;;;4922047;29;20157;-84
2021/12/09 21:40:48;;;;;;;208.25;192.50;;;4.50;99.90;;;;;;4919789;29;20185;-84
2021/12/09 21:43:19;;;;;;;181.43;167.30;;;4.60;99.90;;;;;;4922247;29;20173;-84
2021/12/09 21:45:56;;;;;;;182.60;168.35;;;4.50;99.90;;;;;;4924616;29;20177;-84
2021/12/09 21:48:25;;;;;;;184.13;170.07;;;4.60;99.90;;;;;;4925181;29;20177;-84
2021/12/09 21:50:52;;;;;;;173.43;159.68;;;4.50;99.90;;;;;;4924772;29;20208;-84
2021/12/09 21:53:19;;;;;;;181.63;168.10;;;4.60;99.90;;;;;;4924128;29;20177;-84
2021/12/09 21:55:46;;;;;;;214.07;199.25;;;4.60;99.90;;;;;;4924744;29;20286;-84
2021/12/09 21:58:16;;;;;;;185.95;171.45;;;4.70;99.90;;;;;;4924466;29;20204;-85
2021/12/09 22:01:20;;;;;;;162.75;149.40;;;4.60;99.90;;;;;;4925491;29;20186;-84
2021/12/09 22:03:54;;;;;;;181.32;166.95;;;4.60;99.90;;;;;;4924469;29;20223;-84
2021/12/09 22:06:26;;;;;;;166.55;152.85;;;4.60;99.90;;;;;;4925435;29;20149;-84
2021/12/09 22:09:03;;;;;;;157.20;143.77;;;4.60;99.90;;;;;;4923961;29;20169;-83
2021/12/09 22:11:32;;;;;;;162.15;148.60;;;4.60;99.90;;;;;;4924164;29;20165;-84
2021/12/09 22:14:09;;;;;;;132.50;120.35;;;4.60;99.90;;;;;;4923926;29;20725;-84
2021/12/09 22:16:44;;;;;;;179.18;165.10;;;4.60;99.90;;;;;;4924111;29;20576;-84
2021/12/09 22:19:15;;;;;;;151.43;138.10;;;4.60;99.90;;;;;;4923775;29;20173;-84
2021/12/09 22:21:47;;;;;;;173.05;159.07;;;4.70;99.90;;;;;;4923979;29;20611;-84
2021/12/09 22:24:37;;;;;;;153.40;140.57;;;4.60;99.90;;;;;;4924174;29;20169;-84
2021/12/09 22:27:07;;;;;;;187.57;173.50;;;4.60;99.90;;;;;;4924223;29;20254;-85
2021/12/09 22:29:36;;;;;;;162.07;149.00;;;4.60;99.90;;;;;;4923201;29;20656;-84
2021/12/09 22:32:06;;;;;;;159.90;146.82;;;4.60;99.90;;;;;;4924173;29;20188;-85
2021/12/09 22:34:32;;;;;;;168.43;155.20;;;4.60;99.90;;;;;;4924377;29;20240;-84
2021/12/09 22:36:58;;;;;;;145.05;132.55;;;4.60;99.90;;;;;;4925713;29;20176;-84
2021/12/09 22:39:27;;;;;;;177.23;163.65;;;4.70;99.90;;;;;;4924040;29;20328;-84
2021/12/09 22:42:02;;;;;;;191.55;176.88;;;4.70;99.90;;;;;;4925405;29;20518;-85
2021/12/09 22:44:41;;;;;;;190.35;176.02;;;4.70;99.90;;;;;;4924766;29;20180;-84
2021/12/09 22:47:21;;;;;;;148.55;135.98;;;4.60;99.90;;;;;;4924396;29;20201;-84
2021/12/09 22:50:36;;;;;;;135.85;123.78;;;4.60;99.90;;;;;;4923491;29;20615;-85
2021/12/09 22:53:05;;;;;;;175.15;161.30;;;4.60;99.90;;;;;;4927288;29;20272;-86
2021/12/09 22:55:36;;;;;;;121.55;109.28;;;4.60;99.90;;;;;;4919053;29;20205;-84
2021/12/09 22:58:02;;;;;;;102.63;91.50;;;4.70;99.90;;;;;;4922447;29;20648;-85
2021/12/09 23:00:48;;;;;;;111.40;99.90;;;4.70;99.90;;;;;;4922657;29;20200;-85
2021/12/09 23:03:34;;;;;;;108.90;97.05;;;4.70;99.90;;;;;;4923138;29;20165;-85
2021/12/09 23:06:07;;;;;;;90.25;63.85;;;4.60;99.90;;;;;;4922693;29;20259;-85
2021/12/09 23:08:50;;;;;;;91.80;61.20;;;4.70;99.90;;;;;;4922618;29;20177;-85
2021/12/09 23:11:34;;;;;;;95.93;62.25;;;4.70;99.90;;;;;;4921654;29;20197;-85
2021/12/09 23:17:16;;;;;;;103.72;86.65;;;4.70;99.90;;;;;;4923950;29;20208;-85
2021/12/09 23:19:56;;;;;;;92.18;66.88;;;4.70;99.90;;;;;;4923360;29;20547;-85
2021/12/09 23:22:47;;;;;;;90.10;59.35;;;4.70;99.90;;;;;;4924967;29;20204;-85
2021/12/09 23:25:27;;;;;;;90.03;54.40;;;4.70;99.90;;;;;;4922272;29;20539;-85
2021/12/09 23:31:38;;;;;;;136.45;124.10;;;4.70;99.90;;;;;;4921919;29;20204;-85
2021/12/09 23:35:02;;;;;;;98.53;86.82;;;4.60;99.90;;;;;;4882308;29;20212;-85
2021/12/09 23:38:14;;;;;;;99.10;81.68;;;4.60;99.90;;;;;;4902175;29;20633;-85
2021/12/09 23:41:38;;;;;;;;;;;;;;;;;;;;;
2021/12/09 23:44:36;;;;;;;;;;;;;;;;;;;;;
2021/12/09 23:47:33;;;;;;;;;;;;;;;;;;;;;
2021/12/09 23:50:33;;;;;;;;;;;;;;;;;;;;;
